sensor_id;sensor_type;location;lat;lon;timestamp;pressure;altitude;pressure_sealevel;temperature;humidity
33913;BME280;20200;52.084;5.224;2022-12-07T00:00:27;101690.0;;;5.17;95.52
33913;BME280;20200;52.084;5.224;2022-12-07T00:02:03;101686.0;;;5.22;95.01
33913;BME280;20200;52.084;5.224;2022-12-07T00:03:40;101686.0;;;5.27;94.46
33913;BME280;20200;52.084;5.224;2022-12-07T00:06:53;101687.0;;;5.21;94.55
33913;BME280;20200;52.084;5.224;2022-12-07T00:08:30;101680.0;;;5.38;94.35
33913;BME280;20200;52.084;5.224;2022-12-07T00:10:07;101683.0;;;5.12;94.77
33913;BME280;20200;52.084;5.224;2022-12-07T00:13:25;101680.0;;;5.31;95.07
33913;BME280;20200;52.084;5.224;2022-12-07T00:15:01;101682.0;;;5.44;94.54
33913;BME280;20200;52.084;5.224;2022-12-07T00:16:39;101683.0;;;5.36;94.58
33913;BME280;20200;52.084;5.224;2022-12-07T00:18:15;101683.0;;;5.21;95.31
33913;BME280;20200;52.084;5.224;2022-12-07T00:21:29;101685.0;;;5.15;95.44
33913;BME280;20200;52.084;5.224;2022-12-07T00:23:07;101678.0;;;5.29;95.04
33913;BME280;20200;52.084;5.224;2022-12-07T00:24:43;101675.0;;;5.27;94.71
33913;BME280;20200;52.084;5.224;2022-12-07T00:27:58;101678.0;;;5.38;94.09
33913;BME280;20200;52.084;5.224;2022-12-07T00:29:34;101672.0;;;5.29;93.86
33913;BME280;20200;52.084;5.224;2022-12-07T00:31:11;101674.0;;;5.09;93.62
33913;BME280;20200;52.084;5.224;2022-12-07T00:32:48;101671.0;;;5.27;93.48
33913;BME280;20200;52.084;5.224;2022-12-07T00:36:01;101668.0;;;5.56;92.24
33913;BME280;20200;52.084;5.224;2022-12-07T00:37:39;101663.0;;;5.63;91.72
33913;BME280;20200;52.084;5.224;2022-12-07T00:39:15;101663.0;;;5.54;91.3
33913;BME280;20200;52.084;5.224;2022-12-07T00:42:32;101659.0;;;5.57;90.93
33913;BME280;20200;52.084;5.224;2022-12-07T00:44:08;101656.0;;;5.38;91.16
33913;BME280;20200;52.084;5.224;2022-12-07T00:45:44;101658.0;;;5.14;92.06
33913;BME280;20200;52.084;5.224;2022-12-07T00:47:21;101655.0;;;5.21;91.64
33913;BME280;20200;52.084;5.224;2022-12-07T00:50:33;101655.0;;;5.23;90.93
33913;BME280;20200;52.084;5.224;2022-12-07T00:52:09;101651.0;;;5.38;90.56
33913;BME280;20200;52.084;5.224;2022-12-07T00:53:46;101652.0;;;5.18;91.02
33913;BME280;20200;52.084;5.224;2022-12-07T00:56:59;101655.0;;;5.15;91.29
33913;BME280;20200;52.084;5.224;2022-12-07T00:58:35;101652.0;;;5.25;90.77
33913;BME280;20200;52.084;5.224;2022-12-07T01:00:11;101652.0;;;5.12;90.57
33913;BME280;20200;52.084;5.224;2022-12-07T01:03:24;101657.0;;;5.12;90.81
33913;BME280;20200;52.084;5.224;2022-12-07T01:05:00;101649.0;;;5.15;90.65
33913;BME280;20200;52.084;5.224;2022-12-07T01:06:38;101644.0;;;5.07;90.9
33913;BME280;20200;52.084;5.224;2022-12-07T01:09:50;101644.0;;;5.11;90.74
33913;BME280;20200;52.084;5.224;2022-12-07T01:11:28;101646.0;;;4.96;90.89
33913;BME280;20200;52.084;5.224;2022-12-07T01:13:05;101648.0;;;5.03;90.85
33913;BME280;20200;52.084;5.224;2022-12-07T01:14:42;101653.0;;;5.22;90.22
33913;BME280;20200;52.084;5.224;2022-12-07T01:17:56;101659.0;;;5.04;90.4
33913;BME280;20200;52.084;5.224;2022-12-07T01:19:32;101658.0;;;4.95;91.44
33913;BME280;20200;52.084;5.224;2022-12-07T01:21:11;101657.0;;;5.08;90.93
33913;BME280;20200;52.084;5.224;2022-12-07T01:24:23;101663.0;;;5.09;90.81
33913;BME280;20200;52.084;5.224;2022-12-07T01:26:02;101663.0;;;5.17;90.4
33913;BME280;20200;52.084;5.224;2022-12-07T01:27:39;101664.0;;;5.0;90.73
33913;BME280;20200;52.084;5.224;2022-12-07T01:29:15;101661.0;;;5.11;90.5
33913;BME280;20200;52.084;5.224;2022-12-07T01:32:32;101660.0;;;5.03;90.66
33913;BME280;20200;52.084;5.224;2022-12-07T01:34:10;101661.0;;;5.04;90.81
33913;BME280;20200;52.084;5.224;2022-12-07T01:35:46;101655.0;;;5.25;90.43
33913;BME280;20200;52.084;5.224;2022-12-07T01:39:00;101653.0;;;5.21;90.33
33913;BME280;20200;52.084;5.224;2022-12-07T01:40:36;101653.0;;;5.2;90.56
33913;BME280;20200;52.084;5.224;2022-12-07T01:42:13;101656.0;;;5.14;90.54
33913;BME280;20200;52.084;5.224;2022-12-07T01:44:22;101655.0;;;5.11;90.65
33913;BME280;20200;52.084;5.224;2022-12-07T01:45:59;101656.0;;;5.17;90.6
33913;BME280;20200;52.084;5.224;2022-12-07T01:49:21;101655.0;;;5.16;90.37
33913;BME280;20200;52.084;5.224;2022-12-07T01:51:03;101652.0;;;5.15;90.49
33913;BME280;20200;52.084;5.224;2022-12-07T01:52:43;101653.0;;;5.08;90.34
33913;BME280;20200;52.084;5.224;2022-12-07T01:54:25;101652.0;;;5.12;89.92
33913;BME280;20200;52.084;5.224;2022-12-07T01:57:41;101657.0;;;4.74;90.54
33913;BME280;20200;52.084;5.224;2022-12-07T01:59:21;101655.0;;;4.91;90.24
33913;BME280;20200;52.084;5.224;2022-12-07T02:00:59;101653.0;;;4.86;90.27
33913;BME280;20200;52.084;5.224;2022-12-07T02:04:18;101661.0;;;4.7;90.74
33913;BME280;20200;52.084;5.224;2022-12-07T02:05:55;101658.0;;;4.57;91.9
33913;BME280;20200;52.084;5.224;2022-12-07T02:07:35;101658.0;;;4.57;93.12
33913;BME280;20200;52.084;5.224;2022-12-07T02:09:14;101657.0;;;4.61;93.59
33913;BME280;20200;52.084;5.224;2022-12-07T02:12:27;101660.0;;;4.55;94.42
33913;BME280;20200;52.084;5.224;2022-12-07T02:14:04;101655.0;;;4.45;95.12
33913;BME280;20200;52.084;5.224;2022-12-07T02:15:51;101658.0;;;4.41;95.99
33913;BME280;20200;52.084;5.224;2022-12-07T02:17:48;101656.0;;;4.46;95.97
33913;BME280;20200;52.084;5.224;2022-12-07T02:22:22;101651.0;;;4.66;95.01
33913;BME280;20200;52.084;5.224;2022-12-07T02:25:08;101650.0;;;4.62;95.56
33913;BME280;20200;52.084;5.224;2022-12-07T02:27:22;101649.0;;;4.68;95.33
33913;BME280;20200;52.084;5.224;2022-12-07T02:29:33;101642.0;;;4.84;94.83
33913;BME280;20200;52.084;5.224;2022-12-07T02:31:15;101650.0;;;4.83;94.62
33913;BME280;20200;52.084;5.224;2022-12-07T02:33:00;101648.0;;;4.86;94.28
33913;BME280;20200;52.084;5.224;2022-12-07T02:34:44;101642.0;;;4.88;94.12
33913;BME280;20200;52.084;5.224;2022-12-07T02:36:26;101637.0;;;5.2;93.44
33913;BME280;20200;52.084;5.224;2022-12-07T02:39:55;101637.0;;;5.23;92.52
33913;BME280;20200;52.084;5.224;2022-12-07T02:41:36;101635.0;;;5.29;92.05
33913;BME280;20200;52.084;5.224;2022-12-07T02:43:19;101638.0;;;5.22;92.42
33913;BME280;20200;52.084;5.224;2022-12-07T02:45:01;101635.0;;;5.35;91.84
33913;BME280;20200;52.084;5.224;2022-12-07T02:46:42;101641.0;;;5.46;91.27
33913;BME280;20200;52.084;5.224;2022-12-07T02:49:57;101639.0;;;5.31;91.34
33913;BME280;20200;52.084;5.224;2022-12-07T02:51:33;101636.0;;;5.34;90.95
33913;BME280;20200;52.084;5.224;2022-12-07T02:53:46;101635.0;;;5.38;90.64
33913;BME280;20200;52.084;5.224;2022-12-07T02:55:27;101636.0;;;5.37;89.93
33913;BME280;20200;52.084;5.224;2022-12-07T02:57:17;101636.0;;;5.4;89.41
33913;BME280;20200;52.084;5.224;2022-12-07T03:01:03;101636.0;;;5.42;89.66
33913;BME280;20200;52.084;5.224;2022-12-07T03:02:51;101635.0;;;5.34;89.5
33913;BME280;20200;52.084;5.224;2022-12-07T03:04:35;101640.0;;;5.22;89.71
33913;BME280;20200;52.084;5.224;2022-12-07T03:06:22;101645.0;;;5.3;89.78
33913;BME280;20200;52.084;5.224;2022-12-07T03:08:08;101648.0;;;5.18;90.19
33913;BME280;20200;52.084;5.224;2022-12-07T03:09:52;101651.0;;;5.11;91.44
33913;BME280;20200;52.084;5.224;2022-12-07T03:13:24;101651.0;;;5.04;91.88
33913;BME280;20200;52.084;5.224;2022-12-07T03:15:09;101646.0;;;5.19;91.54
33913;BME280;20200;52.084;5.224;2022-12-07T03:16:52;101637.0;;;5.18;91.38
33913;BME280;20200;52.084;5.224;2022-12-07T03:18:35;101638.0;;;5.04;91.1
33913;BME280;20200;52.084;5.224;2022-12-07T03:20:18;101637.0;;;4.82;92.1
33913;BME280;20200;52.084;5.224;2022-12-07T03:23:40;101630.0;;;4.74;92.81
33913;BME280;20200;52.084;5.224;2022-12-07T03:25:20;101630.0;;;4.87;92.26
33913;BME280;20200;52.084;5.224;2022-12-07T03:27:02;101633.0;;;5.01;91.65
33913;BME280;20200;52.084;5.224;2022-12-07T03:28:51;101633.0;;;5.03;91.25
33913;BME280;20200;52.084;5.224;2022-12-07T03:30:34;101630.0;;;5.08;90.77
33913;BME280;20200;52.084;5.224;2022-12-07T03:34:07;101625.0;;;5.14;90.23
33913;BME280;20200;52.084;5.224;2022-12-07T03:35:53;101630.0;;;4.95;90.86
33913;BME280;20200;52.084;5.224;2022-12-07T03:37:40;101628.0;;;4.99;90.56
33913;BME280;20200;52.084;5.224;2022-12-07T03:39:23;101618.0;;;4.83;90.6
33913;BME280;20200;52.084;5.224;2022-12-07T03:41:05;101626.0;;;5.04;90.24
33913;BME280;20200;52.084;5.224;2022-12-07T03:44:23;101623.0;;;5.04;89.57
33913;BME280;20200;52.084;5.224;2022-12-07T03:46:05;101618.0;;;4.99;89.73
33913;BME280;20200;52.084;5.224;2022-12-07T03:47:57;101619.0;;;4.99;89.28
33913;BME280;20200;52.084;5.224;2022-12-07T03:49:43;101616.0;;;4.95;89.27
33913;BME280;20200;52.084;5.224;2022-12-07T03:53:09;101619.0;;;4.92;89.5
33913;BME280;20200;52.084;5.224;2022-12-07T03:54:52;101620.0;;;4.84;89.8
33913;BME280;20200;52.084;5.224;2022-12-07T03:56:32;101620.0;;;4.91;89.68
33913;BME280;20200;52.084;5.224;2022-12-07T03:58:14;101628.0;;;4.88;89.51
33913;BME280;20200;52.084;5.224;2022-12-07T03:59:54;101626.0;;;4.86;89.94
33913;BME280;20200;52.084;5.224;2022-12-07T04:03:08;101622.0;;;4.84;89.99
33913;BME280;20200;52.084;5.224;2022-12-07T04:04:45;101628.0;;;4.67;90.21
33913;BME280;20200;52.084;5.224;2022-12-07T04:06:21;101622.0;;;4.66;90.56
33913;BME280;20200;52.084;5.224;2022-12-07T04:09:33;101622.0;;;4.78;90.1
33913;BME280;20200;52.084;5.224;2022-12-07T04:11:10;101619.0;;;4.66;90.25
33913;BME280;20200;52.084;5.224;2022-12-07T04:12:46;101622.0;;;4.78;89.91
33913;BME280;20200;52.084;5.224;2022-12-07T04:15:59;101619.0;;;4.66;90.18
33913;BME280;20200;52.084;5.224;2022-12-07T04:17:35;101613.0;;;4.46;91.37
33913;BME280;20200;52.084;5.224;2022-12-07T04:19:13;101617.0;;;4.3;92.5
33913;BME280;20200;52.084;5.224;2022-12-07T04:20:49;101619.0;;;4.42;91.87
33913;BME280;20200;52.084;5.224;2022-12-07T04:24:02;101618.0;;;4.43;91.31
33913;BME280;20200;52.084;5.224;2022-12-07T04:25:40;101612.0;;;4.32;91.64
33913;BME280;20200;52.084;5.224;2022-12-07T04:27:16;101611.0;;;4.25;91.7
33913;BME280;20200;52.084;5.224;2022-12-07T04:30:28;101615.0;;;4.16;92.23
33913;BME280;20200;52.084;5.224;2022-12-07T04:32:05;101620.0;;;4.13;92.35
33913;BME280;20200;52.084;5.224;2022-12-07T04:33:41;101614.0;;;4.13;92.23
33913;BME280;20200;52.084;5.224;2022-12-07T04:36:53;101619.0;;;4.14;91.91
33913;BME280;20200;52.084;5.224;2022-12-07T04:38:29;101617.0;;;4.1;92.7
33913;BME280;20200;52.084;5.224;2022-12-07T04:40:07;101614.0;;;3.88;93.71
33913;BME280;20200;52.084;5.224;2022-12-07T04:41:45;101618.0;;;3.95;94.03
33913;BME280;20200;52.084;5.224;2022-12-07T04:44:57;101625.0;;;4.17;93.18
33913;BME280;20200;52.084;5.224;2022-12-07T04:46:33;101626.0;;;4.29;92.96
33913;BME280;20200;52.084;5.224;2022-12-07T04:48:09;101628.0;;;4.2;92.85
33913;BME280;20200;52.084;5.224;2022-12-07T04:51:24;101621.0;;;4.25;92.79
33913;BME280;20200;52.084;5.224;2022-12-07T04:53:01;101617.0;;;4.24;92.66
33913;BME280;20200;52.084;5.224;2022-12-07T04:54:37;101620.0;;;4.03;93.32
33913;BME280;20200;52.084;5.224;2022-12-07T04:57:50;101612.0;;;3.97;93.59
33913;BME280;20200;52.084;5.224;2022-12-07T04:59:26;101608.0;;;4.22;92.88
33913;BME280;20200;52.084;5.224;2022-12-07T05:01:03;101608.0;;;4.05;93.01
33913;BME280;20200;52.084;5.224;2022-12-07T05:02:39;101597.0;;;4.05;92.86
33913;BME280;20200;52.084;5.224;2022-12-07T05:05:52;101599.0;;;4.03;92.66
33913;BME280;20200;52.084;5.224;2022-12-07T05:07:28;101596.0;;;4.21;92.01
33913;BME280;20200;52.084;5.224;2022-12-07T05:09:05;101602.0;;;4.34;91.3
33913;BME280;20200;52.084;5.224;2022-12-07T05:12:18;101597.0;;;4.16;91.53
33913;BME280;20200;52.084;5.224;2022-12-07T05:13:54;101605.0;;;3.75;93.15
33913;BME280;20200;52.084;5.224;2022-12-07T05:15:31;101599.0;;;3.99;92.6
33913;BME280;20200;52.084;5.224;2022-12-07T05:18:43;101598.0;;;4.0;92.63
33913;BME280;20200;52.084;5.224;2022-12-07T05:20:20;101605.0;;;3.81;94.0
33913;BME280;20200;52.084;5.224;2022-12-07T05:21:56;101600.0;;;3.87;94.01
33913;BME280;20200;52.084;5.224;2022-12-07T05:23:32;101597.0;;;3.87;94.18
33913;BME280;20200;52.084;5.224;2022-12-07T05:26:45;101602.0;;;3.81;94.79
33913;BME280;20200;52.084;5.224;2022-12-07T05:28:22;101595.0;;;3.94;94.89
33913;BME280;20200;52.084;5.224;2022-12-07T05:29:58;101600.0;;;3.99;94.7
33913;BME280;20200;52.084;5.224;2022-12-07T05:33:10;101596.0;;;4.07;94.2
33913;BME280;20200;52.084;5.224;2022-12-07T05:34:47;101603.0;;;3.97;94.1
33913;BME280;20200;52.084;5.224;2022-12-07T05:36:23;101601.0;;;4.01;93.77
33913;BME280;20200;52.084;5.224;2022-12-07T05:39:34;101597.0;;;3.93;93.81
33913;BME280;20200;52.084;5.224;2022-12-07T05:42:12;101601.0;;;3.92;93.64
33913;BME280;20200;52.084;5.224;2022-12-07T05:43:48;101598.0;;;3.67;94.64
33913;BME280;20200;52.084;5.224;2022-12-07T05:45:24;101600.0;;;3.57;95.49
33913;BME280;20200;52.084;5.224;2022-12-07T05:47:00;101600.0;;;3.62;95.15
33913;BME280;20200;52.084;5.224;2022-12-07T05:48:36;101600.0;;;3.66;95.26
33913;BME280;20200;52.084;5.224;2022-12-07T05:51:48;101605.0;;;3.71;95.12
33913;BME280;20200;52.084;5.224;2022-12-07T05:53:25;101600.0;;;3.59;95.66
33913;BME280;20200;52.084;5.224;2022-12-07T05:55:01;101596.0;;;3.5;96.56
33913;BME280;20200;52.084;5.224;2022-12-07T05:59:30;101602.0;;;3.61;96.32
33913;BME280;20200;52.084;5.224;2022-12-07T06:01:06;101595.0;;;3.88;95.74
33913;BME280;20200;52.084;5.224;2022-12-07T06:02:43;101598.0;;;3.9;95.4
33913;BME280;20200;52.084;5.224;2022-12-07T06:04:20;101600.0;;;3.82;95.51
33913;BME280;20200;52.084;5.224;2022-12-07T06:05:56;101594.0;;;3.79;95.4
33913;BME280;20200;52.084;5.224;2022-12-07T06:07:32;101591.0;;;3.93;94.69
33913;BME280;20200;52.084;5.224;2022-12-07T06:10:47;101596.0;;;3.95;94.21
33913;BME280;20200;52.084;5.224;2022-12-07T06:12:39;101600.0;;;4.04;93.8
33913;BME280;20200;52.084;5.224;2022-12-07T06:14:16;101596.0;;;4.1;93.09
33913;BME280;20200;52.084;5.224;2022-12-07T06:15:52;101599.0;;;4.08;93.1
33913;BME280;20200;52.084;5.224;2022-12-07T06:19:04;101597.0;;;4.16;92.73
33913;BME280;20200;52.084;5.224;2022-12-07T06:20:40;101602.0;;;3.99;92.87
33913;BME280;20200;52.084;5.224;2022-12-07T06:22:17;101598.0;;;4.03;92.57
33913;BME280;20200;52.084;5.224;2022-12-07T06:25:30;101599.0;;;4.0;93.01
33913;BME280;20200;52.084;5.224;2022-12-07T06:27:06;101598.0;;;4.03;92.89
33913;BME280;20200;52.084;5.224;2022-12-07T06:28:43;101599.0;;;3.89;93.35
33913;BME280;20200;52.084;5.224;2022-12-07T06:31:56;101595.0;;;4.09;93.15
33913;BME280;20200;52.084;5.224;2022-12-07T06:33:32;101602.0;;;4.28;92.5
33913;BME280;20200;52.084;5.224;2022-12-07T06:35:09;101600.0;;;4.24;92.4
33913;BME280;20200;52.084;5.224;2022-12-07T06:36:46;101602.0;;;4.24;92.24
33913;BME280;20200;52.084;5.224;2022-12-07T06:39:59;101607.0;;;4.24;91.64
33913;BME280;20200;52.084;5.224;2022-12-07T06:41:36;101605.0;;;4.3;91.72
33913;BME280;20200;52.084;5.224;2022-12-07T06:43:13;101605.0;;;4.3;91.39
33913;BME280;20200;52.084;5.224;2022-12-07T06:46:26;101607.0;;;4.36;91.03
33913;BME280;20200;52.084;5.224;2022-12-07T06:48:02;101605.0;;;4.33;90.79
33913;BME280;20200;52.084;5.224;2022-12-07T06:49:39;101603.0;;;4.22;91.2
33913;BME280;20200;52.084;5.224;2022-12-07T06:52:52;101601.0;;;4.37;90.53
33913;BME280;20200;52.084;5.224;2022-12-07T06:54:30;101603.0;;;4.41;90.35
33913;BME280;20200;52.084;5.224;2022-12-07T06:56:07;101602.0;;;4.33;90.57
33913;BME280;20200;52.084;5.224;2022-12-07T06:57:44;101597.0;;;4.45;89.92
33913;BME280;20200;52.084;5.224;2022-12-07T07:00:57;101599.0;;;4.24;90.49
33913;BME280;20200;52.084;5.224;2022-12-07T07:02:33;101592.0;;;4.54;90.15
33913;BME280;20200;52.084;5.224;2022-12-07T07:04:09;101600.0;;;4.61;89.73
33913;BME280;20200;52.084;5.224;2022-12-07T07:07:21;101607.0;;;4.62;89.42
33913;BME280;20200;52.084;5.224;2022-12-07T07:08:58;101608.0;;;4.36;89.63
33913;BME280;20200;52.084;5.224;2022-12-07T07:10:34;101608.0;;;4.18;90.82
33913;BME280;20200;52.084;5.224;2022-12-07T07:13:47;101605.0;;;4.24;91.09
33913;BME280;20200;52.084;5.224;2022-12-07T07:15:23;101603.0;;;4.42;90.76
33913;BME280;20200;52.084;5.224;2022-12-07T07:16:59;101599.0;;;4.28;91.25
33913;BME280;20200;52.084;5.224;2022-12-07T07:18:36;101596.0;;;4.29;91.66
33913;BME280;20200;52.084;5.224;2022-12-07T07:21:49;101599.0;;;4.41;91.48
33913;BME280;20200;52.084;5.224;2022-12-07T07:23:25;101601.0;;;4.3;91.52
33913;BME280;20200;52.084;5.224;2022-12-07T07:25:01;101603.0;;;4.26;91.96
33913;BME280;20200;52.084;5.224;2022-12-07T07:28:16;101601.0;;;4.33;91.21
33913;BME280;20200;52.084;5.224;2022-12-07T07:29:52;101601.0;;;4.39;91.17
33913;BME280;20200;52.084;5.224;2022-12-07T07:34:42;101601.0;;;4.37;90.81
33913;BME280;20200;52.084;5.224;2022-12-07T07:36:18;101594.0;;;4.62;89.93
33913;BME280;20200;52.084;5.224;2022-12-07T07:37:54;101600.0;;;4.43;89.86
33913;BME280;20200;52.084;5.224;2022-12-07T07:39:31;101602.0;;;4.47;89.82
33913;BME280;20200;52.084;5.224;2022-12-07T07:42:43;101599.0;;;4.59;89.5
33913;BME280;20200;52.084;5.224;2022-12-07T07:44:19;101599.0;;;4.49;89.67
33913;BME280;20200;52.084;5.224;2022-12-07T07:45:55;101601.0;;;4.55;89.26
33913;BME280;20200;52.084;5.224;2022-12-07T07:49:08;101599.0;;;4.49;89.37
33913;BME280;20200;52.084;5.224;2022-12-07T07:50:44;101603.0;;;4.57;89.07
33913;BME280;20200;52.084;5.224;2022-12-07T07:52:20;101605.0;;;4.46;89.23
33913;BME280;20200;52.084;5.224;2022-12-07T07:55:33;101605.0;;;4.58;89.08
33913;BME280;20200;52.084;5.224;2022-12-07T07:57:10;101607.0;;;4.55;88.6
33913;BME280;20200;52.084;5.224;2022-12-07T07:58:46;101605.0;;;4.53;88.78
33913;BME280;20200;52.084;5.224;2022-12-07T08:01:58;101599.0;;;4.57;88.41
33913;BME280;20200;52.084;5.224;2022-12-07T08:03:35;101602.0;;;4.2;88.84
33913;BME280;20200;52.084;5.224;2022-12-07T08:05:12;101605.0;;;3.97;89.69
33913;BME280;20200;52.084;5.224;2022-12-07T08:06:48;101606.0;;;3.88;90.09
33913;BME280;20200;52.084;5.224;2022-12-07T08:10:01;101612.0;;;3.9;89.88
33913;BME280;20200;52.084;5.224;2022-12-07T08:11:38;101610.0;;;3.72;90.94
33913;BME280;20200;52.084;5.224;2022-12-07T08:13:15;101610.0;;;3.78;91.11
33913;BME280;20200;52.084;5.224;2022-12-07T08:16:29;101611.0;;;3.78;91.14
33913;BME280;20200;52.084;5.224;2022-12-07T08:18:05;101613.0;;;3.82;91.11
33913;BME280;20200;52.084;5.224;2022-12-07T08:19:42;101611.0;;;3.91;91.05
33913;BME280;20200;52.084;5.224;2022-12-07T08:21:18;101612.0;;;3.89;91.32
33913;BME280;20200;52.084;5.224;2022-12-07T08:24:33;101617.0;;;3.8;92.08
33913;BME280;20200;52.084;5.224;2022-12-07T08:26:10;101628.0;;;3.8;92.4
33913;BME280;20200;52.084;5.224;2022-12-07T08:27:48;101627.0;;;3.81;92.91
33913;BME280;20200;52.084;5.224;2022-12-07T08:31:02;101630.0;;;3.92;93.14
33913;BME280;20200;52.084;5.224;2022-12-07T08:32:39;101633.0;;;3.89;93.7
33913;BME280;20200;52.084;5.224;2022-12-07T08:34:16;101636.0;;;4.12;93.95
33913;BME280;20200;52.084;5.224;2022-12-07T08:37:28;101635.0;;;4.2;94.35
33913;BME280;20200;52.084;5.224;2022-12-07T08:39:04;101635.0;;;4.12;95.0
33913;BME280;20200;52.084;5.224;2022-12-07T08:40:40;101632.0;;;4.16;95.65
33913;BME280;20200;52.084;5.224;2022-12-07T08:42:17;101630.0;;;4.34;95.68
33913;BME280;20200;52.084;5.224;2022-12-07T08:45:32;101631.0;;;4.37;95.81
33913;BME280;20200;52.084;5.224;2022-12-07T08:47:10;101627.0;;;4.39;95.96
33913;BME280;20200;52.084;5.224;2022-12-07T08:48:49;101628.0;;;4.61;95.61
33913;BME280;20200;52.084;5.224;2022-12-07T08:52:07;101626.0;;;4.76;95.07
33913;BME280;20200;52.084;5.224;2022-12-07T08:53:43;101621.0;;;4.92;94.4
33913;BME280;20200;52.084;5.224;2022-12-07T08:55:20;101617.0;;;5.07;93.92
33913;BME280;20200;52.084;5.224;2022-12-07T08:56:57;101618.0;;;5.13;93.67
33913;BME280;20200;52.084;5.224;2022-12-07T09:00:13;101624.0;;;5.3;92.83
33913;BME280;20200;52.084;5.224;2022-12-07T09:01:50;101627.0;;;5.36;92.42
33913;BME280;20200;52.084;5.224;2022-12-07T09:03:26;101627.0;;;5.21;92.22
33913;BME280;20200;52.084;5.224;2022-12-07T09:06:41;101628.0;;;5.0;93.25
33913;BME280;20200;52.084;5.224;2022-12-07T09:08:18;101630.0;;;5.21;92.97
33913;BME280;20200;52.084;5.224;2022-12-07T09:09:55;101631.0;;;5.28;92.52
33913;BME280;20200;52.084;5.224;2022-12-07T09:11:32;101630.0;;;5.21;92.61
33913;BME280;20200;52.084;5.224;2022-12-07T09:14:44;101626.0;;;5.09;93.35
33913;BME280;20200;52.084;5.224;2022-12-07T09:16:20;101627.0;;;5.34;92.93
33913;BME280;20200;52.084;5.224;2022-12-07T09:17:57;101627.0;;;5.33;92.6
33913;BME280;20200;52.084;5.224;2022-12-07T09:21:09;101622.0;;;5.42;92.16
33913;BME280;20200;52.084;5.224;2022-12-07T09:22:45;101614.0;;;5.59;91.94
33913;BME280;20200;52.084;5.224;2022-12-07T09:24:22;101615.0;;;5.73;91.58
33913;BME280;20200;52.084;5.224;2022-12-07T09:27:36;101617.0;;;5.74;91.05
33913;BME280;20200;52.084;5.224;2022-12-07T09:29:12;101612.0;;;5.8;90.21
33913;BME280;20200;52.084;5.224;2022-12-07T09:30:48;101609.0;;;5.66;91.12
33913;BME280;20200;52.084;5.224;2022-12-07T09:34:01;101612.0;;;5.6;91.05
33913;BME280;20200;52.084;5.224;2022-12-07T09:35:37;101615.0;;;5.72;90.06
33913;BME280;20200;52.084;5.224;2022-12-07T09:37:14;101614.0;;;5.73;89.47
33913;BME280;20200;52.084;5.224;2022-12-07T09:38:50;101618.0;;;5.73;88.97
33913;BME280;20200;52.084;5.224;2022-12-07T09:42:05;101621.0;;;5.78;89.69
33913;BME280;20200;52.084;5.224;2022-12-07T09:43:43;101613.0;;;5.93;89.91
33913;BME280;20200;52.084;5.224;2022-12-07T09:45:22;101611.0;;;6.12;90.07
33913;BME280;20200;52.084;5.224;2022-12-07T09:48:37;101615.0;;;6.0;90.37
33913;BME280;20200;52.084;5.224;2022-12-07T09:50:16;101616.0;;;5.94;90.26
33913;BME280;20200;52.084;5.224;2022-12-07T09:52:16;101614.0;;;5.98;89.87
33913;BME280;20200;52.084;5.224;2022-12-07T09:53:56;101608.0;;;6.22;89.88
33913;BME280;20200;52.084;5.224;2022-12-07T09:55:35;101608.0;;;6.16;89.27
33913;BME280;20200;52.084;5.224;2022-12-07T09:59:12;101610.0;;;6.17;88.73
33913;BME280;20200;52.084;5.224;2022-12-07T10:00:50;101618.0;;;6.0;88.58
33913;BME280;20200;52.084;5.224;2022-12-07T10:02:35;101617.0;;;5.98;87.93
33913;BME280;20200;52.084;5.224;2022-12-07T10:04:15;101613.0;;;6.25;88.14
33913;BME280;20200;52.084;5.224;2022-12-07T10:07:31;101611.0;;;6.19;87.92
33913;BME280;20200;52.084;5.224;2022-12-07T10:09:10;101606.0;;;6.08;87.59
33913;BME280;20200;52.084;5.224;2022-12-07T10:10:51;101603.0;;;6.28;87.58
33913;BME280;20200;52.084;5.224;2022-12-07T10:12:28;101598.0;;;6.35;87.24
33913;BME280;20200;52.084;5.224;2022-12-07T10:15:51;101593.0;;;6.2;87.34
33913;BME280;20200;52.084;5.224;2022-12-07T10:17:33;101588.0;;;6.45;87.55
33913;BME280;20200;52.084;5.224;2022-12-07T10:19:22;101587.0;;;6.46;87.24
33913;BME280;20200;52.084;5.224;2022-12-07T10:21:02;101583.0;;;6.59;87.21
33913;BME280;20200;52.084;5.224;2022-12-07T10:22:54;101582.0;;;6.64;87.28
33913;BME280;20200;52.084;5.224;2022-12-07T10:26:48;101577.0;;;6.48;87.66
33913;BME280;20200;52.084;5.224;2022-12-07T10:28:34;101580.0;;;6.38;86.3
33913;BME280;20200;52.084;5.224;2022-12-07T10:30:14;101581.0;;;6.36;85.52
33913;BME280;20200;52.084;5.224;2022-12-07T10:32:01;101581.0;;;6.4;85.41
33913;BME280;20200;52.084;5.224;2022-12-07T10:33:49;101580.0;;;6.38;85.52
33913;BME280;20200;52.084;5.224;2022-12-07T10:35:27;101580.0;;;6.38;85.57
33913;BME280;20200;52.084;5.224;2022-12-07T10:39:00;101575.0;;;6.55;85.7
33913;BME280;20200;52.084;5.224;2022-12-07T10:40:38;101571.0;;;6.7;85.69
33913;BME280;20200;52.084;5.224;2022-12-07T10:42:17;101565.0;;;6.78;85.51
33913;BME280;20200;52.084;5.224;2022-12-07T10:43:56;101565.0;;;6.95;86.22
33913;BME280;20200;52.084;5.224;2022-12-07T10:47:25;101562.0;;;6.96;85.61
33913;BME280;20200;52.084;5.224;2022-12-07T10:49:22;101560.0;;;6.99;83.53
33913;BME280;20200;52.084;5.224;2022-12-07T10:52:35;101562.0;;;7.2;82.32
33913;BME280;20200;52.084;5.224;2022-12-07T10:54:25;101549.0;;;7.25;80.61
33913;BME280;20200;52.084;5.224;2022-12-07T10:56:24;101558.0;;;7.03;79.61
33913;BME280;20200;52.084;5.224;2022-12-07T10:58:31;101561.0;;;7.02;79.38
33913;BME280;20200;52.084;5.224;2022-12-07T11:02:00;101563.0;;;7.14;80.5
33913;BME280;20200;52.084;5.224;2022-12-07T11:04:01;101567.0;;;6.97;80.08
33913;BME280;20200;52.084;5.224;2022-12-07T11:05:56;101565.0;;;6.95;80.2
33913;BME280;20200;52.084;5.224;2022-12-07T11:07:47;101569.0;;;6.86;80.98
33913;BME280;20200;52.084;5.224;2022-12-07T11:09:44;101570.0;;;6.74;81.84
33913;BME280;20200;52.084;5.224;2022-12-07T11:11:47;101562.0;;;6.71;82.6
33913;BME280;20200;52.084;5.224;2022-12-07T11:13:38;101555.0;;;6.57;82.71
33913;BME280;20200;52.084;5.224;2022-12-07T11:15:24;101555.0;;;6.71;82.9
33913;BME280;20200;52.084;5.224;2022-12-07T11:17:08;101549.0;;;6.57;83.44
33913;BME280;20200;52.084;5.224;2022-12-07T11:20:44;101549.0;;;6.44;84.44